Time;durP1;ratioP1;P1;durP2;ratioP2;P2;SDS_P1;SDS_P2;PMS_P1;PMS_P2;Temp;Humidity;BMP_temperature;BMP_pressure;BME280_temperature;BME280_humidity;BME280_pressure;Samples;Min_cycle;Max_cycle;Signal;HPM_P1;HPM_P2
2022/10/17 00:00:41;;;;;;;;;;;13.50;99.90;;;;;;4966207;28;20377;-56
2022/10/17 00:03:09;;;;;;;;;;;13.50;99.90;;;;;;5053569;28;19931;-56
2022/10/17 00:05:40;;;;;;;;;;;13.50;99.90;;;;;;4986289;28;19927;-55
2022/10/17 00:08:08;;;;;;;;;;;13.60;99.90;;;;;;4962072;28;19934;-55
2022/10/17 00:10:35;;;;;;;;;;;13.60;99.90;;;;;;4972119;28;19926;-55
2022/10/17 00:13:03;;;;;;;;;;;13.60;99.90;;;;;;5007270;28;19929;-55
2022/10/17 00:15:31;;;;;;;;;;;13.60;99.90;;;;;;5039826;28;19926;-56
2022/10/17 00:17:58;;;;;;;;;;;13.60;99.90;;;;;;5041491;28;19926;-56
2022/10/17 00:20:26;;;;;;;;;;;13.60;99.90;;;;;;4975653;28;19926;-56
2022/10/17 00:22:53;;;;;;;;;;;13.70;99.90;;;;;;4970707;28;19933;-56
2022/10/17 00:25:21;;;;;;;;;;;13.70;99.90;;;;;;5036834;28;20412;-56
2022/10/17 00:27:48;;;;;;;;;;;13.70;99.90;;;;;;5038287;28;19927;-56
2022/10/17 00:30:16;;;;;;;;;;;13.70;99.90;;;;;;4965551;28;20317;-56
2022/10/17 00:32:43;;;;;;;;;;;13.80;99.90;;;;;;5047304;28;20265;-55
2022/10/17 00:35:11;;;;;;;;;;;13.80;99.90;;;;;;5027000;28;19938;-56
2022/10/17 00:37:39;;;;;;;;;;;13.80;99.90;;;;;;4964365;28;19935;-55
2022/10/17 00:40:06;;;;;;;;;;;13.90;99.90;;;;;;5039451;28;19926;-55
2022/10/17 00:42:34;;;;;;;;;;;13.90;99.90;;;;;;4991818;28;20416;-56
2022/10/17 00:45:02;;;;;;;;;;;13.90;99.90;;;;;;4975580;28;19930;-55
2022/10/17 00:47:30;;;;;;;;;;;13.90;99.90;;;;;;4967339;28;19949;-56
2022/10/17 00:49:58;;;;;;;;;;;14.00;99.90;;;;;;4989971;28;19933;-56
2022/10/17 00:52:28;;;;;;;;;;;14.00;99.90;;;;;;4966261;28;20400;-56
2022/10/17 00:55:20;;;;;;;;;;;14.10;99.90;;;;;;5031950;28;19926;-56
2022/10/17 00:57:48;;;;;;;;;;;14.10;99.90;;;;;;5032381;28;19930;-56
2022/10/17 01:00:18;;;;;;;;;;;14.20;99.90;;;;;;5014049;28;20432;-56
2022/10/17 01:02:46;;;;;;;;;;;14.20;99.90;;;;;;4966962;28;20410;-56
2022/10/17 01:05:17;;;;;;;;;;;14.20;99.90;;;;;;4978591;28;19931;-56
2022/10/17 01:07:45;;;;;;;;;;;14.20;99.90;;;;;;4971035;28;19930;-56
2022/10/17 01:10:13;;;;;;;;;;;14.30;99.90;;;;;;5012457;28;20369;-57
2022/10/17 01:13:06;;;;;;;;;;;14.30;99.90;;;;;;5005802;28;20321;-56
2022/10/17 01:15:43;;;;;;;;;;;14.30;99.90;;;;;;4991903;28;20417;-56
2022/10/17 01:18:23;;;;;;;;;;;14.30;99.90;;;;;;5027016;28;19930;-56
2022/10/17 01:21:10;;;;;;;;;;;14.40;99.90;;;;;;5028879;28;19934;-56
2022/10/17 01:23:56;;;;;;;;;;;14.30;99.90;;;;;;5040514;28;19961;-56
2022/10/17 01:26:30;;;;;;;;;;;14.30;99.90;;;;;;5032375;28;19937;-55
2022/10/17 01:29:12;;;;;;;;;;;14.20;99.90;;;;;;4967178;28;19933;-56
2022/10/17 01:31:40;;;;;;;;;;;14.20;99.90;;;;;;4964235;28;19934;-55
2022/10/17 01:34:20;;;;;;;;;;;14.20;99.90;;;;;;5015131;28;19934;-55
2022/10/17 01:37:13;;;;;;;;;;;14.10;99.90;;;;;;5014255;28;20333;-56
2022/10/17 01:39:50;;;;;;;;;;;14.20;99.90;;;;;;5025292;28;19949;-56
2022/10/17 01:42:30;;;;;;;;;;;14.10;99.90;;;;;;5018465;28;20554;-56
2022/10/17 01:44:58;;;;;;;;;;;14.10;99.90;;;;;;5016324;28;19927;-55
2022/10/17 01:47:27;;;;;;;;;;;14.10;99.90;;;;;;4961446;28;19933;-55
2022/10/17 01:49:59;;;;;;;;;;;14.00;99.90;;;;;;5033668;28;19937;-56
2022/10/17 01:52:31;;;;;;;;;;;14.00;99.90;;;;;;4963013;28;19927;-56
2022/10/17 01:55:04;;;;;;;;;;;14.00;99.90;;;;;;4950956;28;19931;-56
2022/10/17 01:57:37;;;;;;;;;;;14.00;99.90;;;;;;5017352;28;20293;-56
2022/10/17 02:00:08;;;;;;;;;;;14.00;99.90;;;;;;5023084;28;19927;-56
2022/10/17 02:02:40;;;;;;;;;;;14.00;99.90;;;;;;4950132;28;19941;-56
2022/10/17 02:05:07;;;;;;;;;;;14.00;99.90;;;;;;5020846;28;20409;-56
2022/10/17 02:07:35;;;;;;;;;;;13.90;99.90;;;;;;4951331;28;19927;-56
2022/10/17 02:10:07;;;;;;;;;;;13.90;99.90;;;;;;4971417;28;19926;-56
2022/10/17 02:12:38;;;;;;;;;;;13.90;99.90;;;;;;4975944;28;19938;-56
2022/10/17 02:15:10;;;;;;;;;;;13.90;99.90;;;;;;5018827;28;20309;-56
2022/10/17 02:17:50;;;;;;;;;;;13.90;99.90;;;;;;5016817;28;19935;-56
2022/10/17 02:20:17;;;;;;;;;;;13.90;99.90;;;;;;4963589;28;19926;-56
2022/10/17 02:22:45;;;;;;;;;;;13.90;99.90;;;;;;5021598;28;19937;-56
2022/10/17 02:25:16;;;;;;;;;;;13.90;99.90;;;;;;5053307;28;20324;-56
2022/10/17 02:27:46;;;;;;;;;;;13.90;99.90;;;;;;5058419;28;20266;-56
2022/10/17 02:30:32;;;;;;;;;;;13.90;99.90;;;;;;5040934;28;19926;-56
2022/10/17 02:33:06;;;;;;;;;;;13.90;99.90;;;;;;5038277;28;19933;-56
2022/10/17 02:35:35;;;;;;;;;;;13.90;99.90;;;;;;5057182;28;19925;-56
2022/10/17 02:38:04;;;;;;;;;;;13.90;99.90;;;;;;5052518;28;19926;-56
2022/10/17 02:40:32;;;;;;;;;;;13.90;99.90;;;;;;5056726;28;19948;-56
2022/10/17 02:43:00;;;;;;;;;;;13.80;99.90;;;;;;5055984;28;19926;-55
2022/10/17 02:45:34;;;;;;;;;;;13.80;99.90;;;;;;5037574;28;20380;-56
2022/10/17 02:48:04;;;;;;;;;;;13.80;99.90;;;;;;5041827;28;20396;-56
2022/10/17 02:50:40;;;;;;;;;;;13.80;99.90;;;;;;5048349;28;19928;-56
2022/10/17 02:53:10;;;;;;;;;;;13.80;99.90;;;;;;4973119;28;19927;-56
2022/10/17 02:56:04;;;;;;;;;;;13.80;99.90;;;;;;5037254;28;19926;-55
2022/10/17 02:58:33;;;;;;;;;;;13.70;99.90;;;;;;5040502;28;19926;-56
2022/10/17 03:01:02;;;;;;;;;;;13.70;99.90;;;;;;5038596;28;19934;-56
2022/10/17 03:03:31;;;;;;;;;;;13.70;99.90;;;;;;4988365;28;19926;-56
2022/10/17 03:06:01;;;;;;;;;;;13.60;99.90;;;;;;5056421;28;20373;-56
2022/10/17 03:08:29;;;;;;;;;;;13.60;99.90;;;;;;5054028;28;19945;-57
2022/10/17 03:10:56;;;;;;;;;;;13.60;99.90;;;;;;5000425;28;19928;-56
2022/10/17 03:13:26;;;;;;;;;;;13.60;99.90;;;;;;5049246;28;20274;-56
2022/10/17 03:15:54;;;;;;;;;;;13.60;99.90;;;;;;5041056;28;19929;-56
2022/10/17 03:18:22;;;;;;;;;;;13.60;99.90;;;;;;4977721;28;20297;-56
2022/10/17 03:20:54;;;;;;;;;;;13.60;99.90;;;;;;5035772;28;19933;-55
2022/10/17 03:23:21;;;;;;;;;;;13.60;99.90;;;;;;4983501;28;19933;-56
2022/10/17 03:25:49;;;;;;;;;;;13.60;99.90;;;;;;5054173;28;19945;-56
2022/10/17 03:28:16;;;;;;;;;;;13.60;99.90;;;;;;5073565;28;19933;-56
2022/10/17 03:30:44;;;;;;;;;;;13.50;99.90;;;;;;5056132;28;19937;-56
2022/10/17 03:33:11;;;;;;;;;;;13.50;99.90;;;;;;5039283;28;19926;-55
2022/10/17 03:35:39;;;;;;;;;;;13.50;99.90;;;;;;5055010;28;20462;-55
2022/10/17 03:38:07;;;;;;;;;;;13.50;99.90;;;;;;5055811;28;19925;-56
2022/10/17 03:40:36;;;;;;;;;;;13.40;99.90;;;;;;5043599;28;19947;-56
2022/10/17 03:43:03;;;;;;;;;;;13.40;99.90;;;;;;5050466;28;19925;-56
2022/10/17 03:45:32;;;;;;;;;;;13.50;99.90;;;;;;5036618;28;19926;-56
2022/10/17 03:47:59;;;;;;;;;;;13.40;99.90;;;;;;5031641;28;19931;-56
2022/10/17 03:50:26;;;;;;;;;;;13.40;99.90;;;;;;5034654;28;19926;-56
2022/10/17 03:52:55;;;;;;;;;;;13.40;99.90;;;;;;5051193;28;19926;-56
2022/10/17 03:55:23;;;;;;;;;;;13.40;99.90;;;;;;5053011;28;19948;-56
2022/10/17 03:57:50;;;;;;;;;;;13.30;99.90;;;;;;5071463;28;19925;-56
2022/10/17 04:00:20;;;;;;;;;;;13.30;99.90;;;;;;5058237;28;19926;-56
2022/10/17 04:02:54;;;;;;;;;;;13.30;99.90;;;;;;5052453;28;20007;-56
2022/10/17 04:05:24;;;;;;;;;;;13.20;99.90;;;;;;5054313;28;19926;-56
2022/10/17 04:07:52;;;;;;;;;;;13.20;99.90;;;;;;5038250;28;19926;-56
2022/10/17 04:10:27;;;;;;;;;;;13.20;99.90;;;;;;5037354;28;20393;-56
2022/10/17 04:12:56;;;;;;;;;;;13.10;99.90;;;;;;5035668;28;20376;-56
2022/10/17 04:15:23;;;;;;;;;;;13.00;99.90;;;;;;5035483;28;19926;-56
2022/10/17 04:17:50;;;;;;;;;;;13.00;99.90;;;;;;4984543;28;19933;-56
2022/10/17 04:20:18;;;;;;;;;;;13.00;99.90;;;;;;5026479;28;19925;-56
2022/10/17 04:22:45;;;;;;;;;;;12.90;99.90;;;;;;5054914;28;19926;-56
2022/10/17 04:25:13;;;;;;;;;;;12.90;99.90;;;;;;5047921;28;19933;-56
2022/10/17 04:27:44;;;;;;;;;;;12.90;99.90;;;;;;5055024;28;19925;-56
2022/10/17 04:30:13;;;;;;;;;;;12.80;99.90;;;;;;5043901;28;19933;-57
2022/10/17 04:32:40;;;;;;;;;;;12.80;99.90;;;;;;5029425;28;20293;-56
2022/10/17 04:35:12;;;;;;;;;;;12.80;99.90;;;;;;4971675;28;19933;-56
2022/10/17 04:37:45;;;;;;;;;;;12.70;99.90;;;;;;5054356;28;19937;-56
2022/10/17 04:40:17;;;;;;;;;;;12.70;99.90;;;;;;5048075;28;19960;-56
2022/10/17 04:42:45;;;;;;;;;;;12.70;99.90;;;;;;5034946;28;19925;-56
2022/10/17 04:45:16;;;;;;;;;;;12.60;99.90;;;;;;5049872;28;19926;-56
2022/10/17 04:47:45;;;;;;;;;;;12.70;99.90;;;;;;4972104;28;19930;-57
2022/10/17 04:50:13;;;;;;;;;;;12.70;99.90;;;;;;4951804;28;20572;-57
2022/10/17 04:52:40;;;;;;;;;;;12.70;99.90;;;;;;4954830;28;19935;-56
2022/10/17 04:55:08;;;;;;;;;;;12.70;99.90;;;;;;5014294;28;19941;-56
2022/10/17 04:57:36;;;;;;;;;;;12.70;99.90;;;;;;4966668;28;20287;-56
2022/10/17 05:00:16;;;;;;;;;;;12.70;99.90;;;;;;5014712;28;19941;-57
2022/10/17 05:03:00;;;;;;;;;;;12.60;99.90;;;;;;5017243;28;20407;-56
2022/10/17 05:05:29;;;;;;;;;;;12.70;99.90;;;;;;4962565;28;19941;-56
2022/10/17 05:07:57;;;;;;;;;;;12.60;99.90;;;;;;5017060;28;20087;-55
2022/10/17 05:10:29;;;;;;;;;;;12.60;99.90;;;;;;5051468;28;19933;-55
2022/10/17 05:12:58;;;;;;;;;;;12.50;99.90;;;;;;5013545;28;20411;-56
2022/10/17 05:15:29;;;;;;;;;;;12.50;99.90;;;;;;4982229;28;19930;-56
2022/10/17 05:17:57;;;;;;;;;;;12.40;99.90;;;;;;5018566;28;19932;-55
2022/10/17 05:20:26;;;;;;;;;;;12.40;99.90;;;;;;4967858;28;19938;-55
2022/10/17 05:22:54;;;;;;;;;;;12.40;99.90;;;;;;5064135;28;19930;-56
2022/10/17 05:25:21;;;;;;;;;;;12.40;99.90;;;;;;5019932;28;19926;-55
2022/10/17 05:27:49;;;;;;;;;;;12.40;99.90;;;;;;5033144;28;19928;-55
2022/10/17 05:30:17;;;;;;;;;;;12.30;99.90;;;;;;5013452;28;19927;-55
2022/10/17 05:32:45;;;;;;;;;;;12.20;99.90;;;;;;5013441;28;20425;-56
2022/10/17 05:35:13;;;;;;;;;;;12.20;99.90;;;;;;4950694;28;19927;-56
2022/10/17 05:37:40;;;;;;;;;;;12.20;99.90;;;;;;4991183;28;19936;-56
2022/10/17 05:40:09;;;;;;;;;;;12.10;99.90;;;;;;4960166;28;19937;-56
2022/10/17 05:42:36;;;;;;;;;;;12.10;99.90;;;;;;4948110;28;19926;-55
2022/10/17 05:45:04;;;;;;;;;;;12.10;99.90;;;;;;4944626;28;19931;-56
2022/10/17 05:47:32;;;;;;;;;;;12.10;99.90;;;;;;5046615;28;19925;-56
2022/10/17 05:50:00;;;;;;;;;;;12.10;99.90;;;;;;4963047;28;20305;-57
2022/10/17 05:52:36;;;;;;;;;;;12.10;99.90;;;;;;5020885;28;19941;-56
2022/10/17 05:55:10;;;;;;;;;;;12.10;99.90;;;;;;5027229;28;19934;-55
2022/10/17 05:57:39;;;;;;;;;;;12.00;99.90;;;;;;5035082;28;19931;-55
2022/10/17 06:00:12;;;;;;;;;;;12.00;99.90;;;;;;5005175;28;19926;-56
2022/10/17 06:02:47;;;;;;;;;;;11.90;99.90;;;;;;5025380;28;19949;-55
2022/10/17 06:05:17;;;;;;;;;;;11.90;99.90;;;;;;5027338;28;19946;-56
2022/10/17 06:07:46;;;;;;;;;;;11.80;99.90;;;;;;5035938;28;20375;-56
2022/10/17 06:10:16;;;;;;;;;;;11.80;99.90;;;;;;4994442;28;20396;-56
2022/10/17 06:12:43;;;;;;;;;;;11.80;99.90;;;;;;5027655;28;19949;-56
2022/10/17 06:15:11;;;;;;;;;;;11.80;99.90;;;;;;5021755;28;19934;-56
2022/10/17 06:17:42;;;;;;;;;;;11.70;99.90;;;;;;5038486;28;19931;-55
2022/10/17 06:20:09;;;;;;;;;;;11.70;99.90;;;;;;5032606;28;19934;-55
2022/10/17 06:22:37;;;;;;;;;;;11.60;99.90;;;;;;5013869;28;19931;-57
2022/10/17 06:25:10;;;;;;;;;;;11.50;99.90;;;;;;4949329;28;19941;-55
2022/10/17 06:27:38;;;;;;;;;;;11.50;99.90;;;;;;4994039;28;20379;-55
2022/10/17 06:30:06;;;;;;;;;;;11.40;99.90;;;;;;5039309;28;20392;-55
2022/10/17 06:32:34;;;;;;;;;;;11.40;99.90;;;;;;4976446;28;19926;-55
2022/10/17 06:35:01;;;;;;;;;;;11.30;99.90;;;;;;4981828;28;19930;-55
2022/10/17 06:37:31;;;;;;;;;;;11.20;99.90;;;;;;5049696;28;20398;-55
2022/10/17 06:40:07;;;;;;;;;;;11.20;99.90;;;;;;4967186;28;19934;-55
2022/10/17 06:42:40;;;;;;;;;;;11.10;99.90;;;;;;5016384;28;19930;-55
2022/10/17 06:45:28;;;;;;;;;;;11.10;99.90;;;;;;4974036;28;19937;-56
2022/10/17 06:48:08;;;;;;;;;;;11.00;99.90;;;;;;4978362;28;19926;-55
2022/10/17 06:50:43;;;;;;;;;;;11.00;99.90;;;;;;5053603;28;19930;-55
2022/10/17 06:53:15;;;;;;;;;;;10.90;99.90;;;;;;5065516;28;19931;-56
2022/10/17 06:56:03;;;;;;;;;;;10.90;99.90;;;;;;4950882;28;19931;-56
2022/10/17 06:58:56;;;;;;;;;;;10.90;99.90;;;;;;4980209;28;19934;-56
2022/10/17 07:01:29;;;;;;;;;;;10.90;99.90;;;;;;5030485;28;19934;-54
2022/10/17 07:03:59;;;;;;;;;;;10.90;99.90;;;;;;5016840;28;19925;-56
2022/10/17 07:06:28;;;;;;;;;;;10.90;99.90;;;;;;5012243;28;19934;-55
2022/10/17 07:08:59;;;;;;;;;;;11.80;99.90;;;;;;5014437;28;20084;-57
2022/10/17 07:11:27;;;;;;;;;;;10.90;99.90;;;;;;5008069;28;19934;-57
2022/10/17 07:13:54;;;;;;;;;;;10.80;99.90;;;;;;5013771;28;19924;-56
2022/10/17 07:16:22;;;;;;;;;;;10.80;99.90;;;;;;5086500;28;19931;-56
2022/10/17 07:18:57;;;;;;;;;;;10.80;99.90;;;;;;5013136;28;19926;-56
2022/10/17 07:21:25;;;;;;;;;;;10.80;99.90;;;;;;4958237;28;19945;-55
2022/10/17 07:23:52;;;;;;;;;;;10.80;99.90;;;;;;5034873;28;19934;-57
2022/10/17 07:26:20;;;;;;;;;;;10.80;99.90;;;;;;4965681;28;19934;-56
2022/10/17 07:28:51;;;;;;;;;;;10.80;99.90;;;;;;5049377;28;19932;-56
2022/10/17 07:31:28;;;;;;;;;;;10.70;99.90;;;;;;5015470;28;19937;-56
2022/10/17 07:33:58;;;;;;;;;;;10.70;99.90;;;;;;5041686;28;20346;-56
2022/10/17 07:36:25;;;;;;;;;;;10.70;99.90;;;;;;5015809;28;19932;-56
2022/10/17 07:38:54;;;;;;;;;;;10.70;99.90;;;;;;5036041;28;20304;-57
2022/10/17 07:41:23;;;;;;;;;;;10.70;99.90;;;;;;5028773;28;19938;-56
2022/10/17 07:43:51;;;;;;;;;;;10.70;99.90;;;;;;5005971;28;20511;-56
2022/10/17 07:46:22;;;;;;;;;;;10.70;99.90;;;;;;5055375;28;20370;-56
2022/10/17 07:48:50;;;;;;;;;;;10.80;99.90;;;;;;5041084;28;20518;-56
2022/10/17 07:51:20;;;;;;;;;;;10.70;99.90;;;;;;5041343;28;19936;-55
2022/10/17 07:53:48;;;;;;;;;;;10.70;99.90;;;;;;5052240;28;19925;-56
2022/10/17 07:56:15;;;;;;;;;;;10.70;99.90;;;;;;4998454;28;19930;-56
2022/10/17 07:58:43;;;;;;;;;;;10.60;99.90;;;;;;4985571;28;19933;-56
2022/10/17 08:01:13;;;;;;;;;;;10.60;99.90;;;;;;4986818;28;19937;-56
2022/10/17 08:03:43;;;;;;;;;;;10.60;99.90;;;;;;5017924;28;19931;-56
2022/10/17 08:06:10;;;;;;;;;;;10.60;99.90;;;;;;5050363;28;20250;-56
2022/10/17 08:08:38;;;;;;;;;;;10.60;99.90;;;;;;5028140;28;19924;-56
2022/10/17 08:11:06;;;;;;;;;;;10.60;99.90;;;;;;4992627;28;20125;-56
2022/10/17 08:13:34;;;;;;;;;;;10.70;99.90;;;;;;5047484;28;19931;-56
2022/10/17 08:16:02;;;;;;;;;;;10.80;99.90;;;;;;5035897;28;19925;-56
2022/10/17 08:18:30;;;;;;;;;;;10.80;99.90;;;;;;4991492;28;19933;-55
2022/10/17 08:20:58;;;;;;;;;;;10.90;99.90;;;;;;5053578;28;19926;-56
2022/10/17 08:23:26;;;;;;;;;;;11.10;99.90;;;;;;4975485;28;19930;-56
2022/10/17 08:25:57;;;;;;;;;;;11.10;99.90;;;;;;5046820;28;19933;-56
2022/10/17 08:28:24;;;;;;;;;;;11.20;99.90;;;;;;4991181;28;19933;-57
2022/10/17 08:30:52;;;;;;;;;;;11.40;99.90;;;;;;4967355;28;20377;-56
2022/10/17 08:33:19;;;;;;;;;;;11.50;99.90;;;;;;5047921;28;19925;-57
2022/10/17 08:35:47;;;;;;;;;;;11.60;99.90;;;;;;5066617;28;19936;-57
2022/10/17 08:38:14;;;;;;;;;;;11.80;99.90;;;;;;5004510;28;19934;-57
2022/10/17 08:40:47;;;;;;;;;;;11.90;99.90;;;;;;4966186;28;19927;-58
2022/10/17 08:43:15;;;;;;;;;;;12.00;99.90;;;;;;4983386;28;19932;-58
2022/10/17 08:46:01;;;;;;;;;;;12.10;99.90;;;;;;5069498;28;19928;-58
2022/10/17 08:48:31;;;;;;;;;;;12.20;99.90;;;;;;5034628;28;19931;-56
2022/10/17 08:51:11;;;;;;;;;;;12.40;99.90;;;;;;5019584;28;20419;-58
2022/10/17 08:53:38;;;;;;;;;;;12.40;99.90;;;;;;5045847;28;20051;-57
2022/10/17 08:56:14;;;;;;;;;;;12.50;99.90;;;;;;4963282;28;19926;-57
2022/10/17 08:58:51;;;;;;;;;;;12.70;99.90;;;;;;5028406;28;20305;-62
2022/10/17 09:01:18;;;;;;;;;;;12.80;99.90;;;;;;4972753;28;19929;-59
2022/10/17 09:03:56;;;;;;;;;;;12.90;99.90;;;;;;5060057;28;19931;-56
2022/10/17 09:06:28;;;;;;;;;;;13.00;99.90;;;;;;5018881;28;19926;-56
2022/10/17 09:08:59;;;;;;;;;;;13.00;99.90;;;;;;5042107;28;19936;-56
2022/10/17 09:11:38;;;;;;;;;;;13.10;99.90;;;;;;5032155;28;19926;-56
2022/10/17 09:14:22;;;;;;;;;;;13.20;99.90;;;;;;5013357;28;19924;-55
2022/10/17 09:17:04;;;;;;;;;;;13.30;99.90;;;;;;5043749;28;19926;-56
2022/10/17 09:19:35;;;;;;;;;;;13.40;99.90;;;;;;5029628;28;19926;-56
2022/10/17 09:22:02;;;;;;;;;;;13.50;99.90;;;;;;4986836;28;20317;-56
2022/10/17 09:24:50;;;;;;;;;;;13.60;99.90;;;;;;5042212;28;19924;-56
2022/10/17 09:27:23;;;;;;;;;;;13.60;99.90;;;;;;4997121;28;19930;-56
2022/10/17 09:29:59;;;;;;;;;;;13.70;99.90;;;;;;5067713;28;19925;-56
2022/10/17 09:32:27;;;;;;;;;;;13.80;99.90;;;;;;5068796;28;19943;-55
2022/10/17 09:34:55;;;;;;;;;;;13.90;99.90;;;;;;5050676;28;19946;-56
2022/10/17 09:37:28;;;;;;;;;;;13.90;99.90;;;;;;4996565;28;19926;-56
2022/10/17 09:39:55;;;;;;;;;;;14.00;99.90;;;;;;5068296;28;19928;-56
2022/10/17 09:42:24;;;;;;;;;;;14.10;99.90;;;;;;4991814;28;19957;-56
2022/10/17 09:45:03;;;;;;;;;;;14.20;99.90;;;;;;5047344;28;20376;-57
2022/10/17 09:47:35;;;;;;;;;;;14.30;99.90;;;;;;5066537;28;19924;-56
2022/10/17 09:50:02;;;;;;;;;;;14.40;99.90;;;;;;5036518;28;19929;-57
2022/10/17 09:52:34;;;;;;;;;;;14.40;99.90;;;;;;4986183;28;20422;-56
2022/10/17 09:55:04;;;;;;;;;;;14.40;99.90;;;;;;5060897;28;19924;-57
2022/10/17 09:57:50;;;;;;;;;;;14.50;99.90;;;;;;4995034;28;20231;-57
2022/10/17 10:00:28;;;;;;;;;;;14.60;99.90;;;;;;4962959;28;19930;-57
2022/10/17 10:03:07;;;;;;;;;;;14.70;99.90;;;;;;5042994;28;19949;-56
2022/10/17 10:05:35;;;;;;;;;;;14.80;99.90;;;;;;5007902;28;19926;-57
2022/10/17 10:08:04;;;;;;;;;;;14.90;99.90;;;;;;4964472;28;19934;-57
2022/10/17 10:10:32;;;;;;;;;;;14.90;99.90;;;;;;4967226;28;19926;-56
2022/10/17 10:13:03;;;;;;;;;;;15.00;99.90;;;;;;4982116;28;19926;-56
2022/10/17 10:15:40;;;;;;;;;;;15.00;99.90;;;;;;5055482;28;19926;-57
2022/10/17 10:18:30;;;;;;;;;;;15.00;99.90;;;;;;5018827;28;19931;-57
2022/10/17 10:21:06;;;;;;;;;;;15.10;99.90;;;;;;4961065;28;19930;-57
2022/10/17 10:23:38;;;;;;;;;;;15.20;99.90;;;;;;5012822;28;19925;-57
2022/10/17 10:26:24;;;;;;;;;;;15.10;99.90;;;;;;4991026;28;19926;-57
2022/10/17 10:28:51;;;;;;;;;;;15.30;99.90;;;;;;5035364;28;19932;-57
2022/10/17 10:31:24;;;;;;;;;;;15.40;99.90;;;;;;4998443;28;19930;-57
2022/10/17 10:33:52;;;;;;;;;;;15.40;99.90;;;;;;5012964;28;19924;-56
2022/10/17 10:36:24;;;;;;;;;;;15.60;99.90;;;;;;5071990;28;19932;-57
2022/10/17 10:38:56;;;;;;;;;;;15.70;99.90;;;;;;5071662;28;20539;-57
2022/10/17 10:41:44;;;;;;;;;;;15.70;99.90;;;;;;5025460;28;19924;-57
2022/10/17 10:44:13;;;;;;;;;;;15.80;99.90;;;;;;4964344;28;19937;-57
2022/10/17 10:46:40;;;;;;;;;;;15.90;99.90;;;;;;4969845;28;19926;-58
2022/10/17 10:49:26;;;;;;;;;;;16.00;99.90;;;;;;4983003;28;19931;-58
2022/10/17 10:51:55;;;;;;;;;;;16.20;99.90;;;;;;5033447;28;19926;-58
2022/10/17 10:54:29;;;;;;;;;;;16.40;99.90;;;;;;5029817;28;19925;-57
2022/10/17 10:56:59;;;;;;;;;;;16.50;99.90;;;;;;5030230;28;19938;-58
2022/10/17 10:59:26;;;;;;;;;;;16.70;99.90;;;;;;5040405;28;19926;-57
2022/10/17 11:02:01;;;;;;;;;;;16.80;99.90;;;;;;4985499;28;19934;-57
2022/10/17 11:04:31;;;;;;;;;;;16.90;99.90;;;;;;5041899;28;19930;-58
2022/10/17 11:07:09;;;;;;;;;;;16.90;99.90;;;;;;5033875;28;20380;-57
2022/10/17 11:09:54;;;;;;;;;;;17.00;99.90;;;;;;4967927;28;20415;-57
2022/10/17 11:12:27;;;;;;;;;;;17.10;99.90;;;;;;5002312;28;19926;-57
2022/10/17 11:15:02;;;;;;;;;;;17.00;99.90;;;;;;5031125;28;19937;-57
2022/10/17 11:17:30;;;;;;;;;;;17.10;99.90;;;;;;4999050;28;20267;-57
2022/10/17 11:20:03;;;;;;;;;;;17.00;99.90;;;;;;5043681;28;19930;-57
2022/10/17 11:22:31;;;;;;;;;;;17.00;99.90;;;;;;4969136;28;19926;-57
2022/10/17 11:24:59;;;;;;;;;;;17.10;99.90;;;;;;4966616;28;19930;-57
2022/10/17 11:27:28;;;;;;;;;;;17.20;99.90;;;;;;4977956;28;20682;-57
2022/10/17 11:29:56;;;;;;;;;;;17.20;99.90;;;;;;4996899;28;19934;-58
2022/10/17 11:32:26;;;;;;;;;;;17.20;99.90;;;;;;4981782;28;19930;-58
2022/10/17 11:34:57;;;;;;;;;;;17.30;99.90;;;;;;5049267;28;19949;-57
2022/10/17 11:37:29;;;;;;;;;;;17.40;99.90;;;;;;5045317;28;19926;-57
2022/10/17 11:40:06;;;;;;;;;;;17.60;99.90;;;;;;4968240;28;20282;-57
2022/10/17 11:42:41;;;;;;;;;;;17.80;99.70;;;;;;5028318;28;19930;-57
2022/10/17 11:45:12;;;;;;;;;;;18.10;99.80;;;;;;5044653;28;19930;-56
2022/10/17 11:47:45;;;;;;;;;;;18.30;98.50;;;;;;4992974;28;19931;-56
2022/10/17 11:50:12;;;;;;;;;;;18.50;98.00;;;;;;5003459;28;20039;-57
2022/10/17 11:53:03;;;;;;;;;;;18.60;98.30;;;;;;5057897;28;19948;-57
2022/10/17 11:55:31;;;;;;;;;;;18.80;98.60;;;;;;5013011;28;19933;-57
2022/10/17 11:58:17;;;;;;;;;;;19.00;98.60;;;;;;5028872;28;20168;-57
2022/10/17 12:00:54;;;;;;;;;;;19.20;97.80;;;;;;4966176;28;19926;-57
2022/10/17 12:03:33;;;;;;;;;;;19.50;97.40;;;;;;4986862;28;19928;-57
2022/10/17 12:06:19;;;;;;;;;;;19.80;97.60;;;;;;5058125;28;19931;-57
2022/10/17 12:08:57;;;;;;;;;;;20.00;96.00;;;;;;5038468;28;20371;-57
2022/10/17 12:11:44;;;;;;;;;;;20.20;94.40;;;;;;4998207;28;20388;-57
2022/10/17 12:14:41;;;;;;;;;;;20.30;94.70;;;;;;4994842;28;19949;-57
2022/10/17 12:17:27;;;;;;;;;;;20.40;94.20;;;;;;4978866;28;19929;-57
2022/10/17 12:20:14;;;;;;;;;;;20.60;94.10;;;;;;4966341;28;19934;-57
2022/10/17 12:22:48;;;;;;;;;;;20.80;93.70;;;;;;4967697;28;20510;-57
2022/10/17 12:25:18;;;;;;;;;;;21.00;92.80;;;;;;4986656;28;19926;-57
2022/10/17 12:27:46;;;;;;;;;;;21.20;93.30;;;;;;4967554;28;19933;-57
2022/10/17 12:30:15;;;;;;;;;;;21.40;92.60;;;;;;4978330;28;19926;-57
2022/10/17 12:33:00;;;;;;;;;;;21.50;91.80;;;;;;4983677;28;19926;-57
2022/10/17 12:35:34;;;;;;;;;;;21.50;91.70;;;;;;4974048;28;19938;-57
2022/10/17 12:38:14;;;;;;;;;;;21.60;91.60;;;;;;4991229;28;19929;-58
2022/10/17 12:40:41;;;;;;;;;;;21.80;91.50;;;;;;5042056;28;20005;-57
2022/10/17 12:43:15;;;;;;;;;;;21.80;91.40;;;;;;5056799;28;19926;-58
2022/10/17 12:45:55;;;;;;;;;;;21.80;90.90;;;;;;5022768;28;19927;-57
2022/10/17 12:48:32;;;;;;;;;;;22.10;90.10;;;;;;4978235;28;19968;-58
2022/10/17 12:50:59;;;;;;;;;;;22.10;90.40;;;;;;4968138;28;19938;-57
2022/10/17 12:53:53;;;;;;;;;;;22.30;90.60;;;;;;5051432;28;20413;-58
2022/10/17 12:56:29;;;;;;;;;;;22.50;89.10;;;;;;4968759;28;19926;-58
2022/10/17 12:58:57;;;;;;;;;;;22.50;88.90;;;;;;4968211;28;19937;-58
2022/10/17 13:01:29;;;;;;;;;;;22.60;87.00;;;;;;5043304;28;19937;-58
2022/10/17 13:04:01;;;;;;;;;;;22.60;85.90;;;;;;4976332;28;19926;-58
2022/10/17 13:06:29;;;;;;;;;;;22.50;87.10;;;;;;5046230;28;19941;-57
2022/10/17 13:08:59;;;;;;;;;;;22.60;89.10;;;;;;4981739;28;20384;-58
2022/10/17 13:11:31;;;;;;;;;;;22.70;87.10;;;;;;5000102;28;20032;-57
2022/10/17 13:13:59;;;;;;;;;;;23.10;85.90;;;;;;4978205;28;19937;-58
2022/10/17 13:16:29;;;;;;;;;;;23.20;83.70;;;;;;4965234;28;19933;-57
2022/10/17 13:18:58;;;;;;;;;;;23.30;82.20;;;;;;5008143;28;19926;-58
2022/10/17 13:21:25;;;;;;;;;;;23.20;80.80;;;;;;4977739;28;19933;-57
2022/10/17 13:23:53;;;;;;;;;;;23.10;80.90;;;;;;5047342;28;20381;-58
2022/10/17 13:26:24;;;;;;;;;;;22.90;81.00;;;;;;4955664;28;19931;-57
2022/10/17 13:29:01;;;;;;;;;;;22.90;81.40;;;;;;4980596;28;20428;-58
2022/10/17 13:31:33;;;;;;;;;;;22.90;80.20;;;;;;4966792;28;20404;-58
2022/10/17 13:34:02;;;;;;;;;;;22.90;81.40;;;;;;4971250;28;19934;-58
2022/10/17 13:36:30;;;;;;;;;;;23.00;79.50;;;;;;5032979;28;19934;-58
2022/10/17 13:38:59;;;;;;;;;;;23.20;79.60;;;;;;5055153;28;20403;-57
2022/10/17 13:41:27;;;;;;;;;;;23.20;77.50;;;;;;5020708;28;19943;-58
2022/10/17 13:44:09;;;;;;;;;;;23.10;77.40;;;;;;5010898;28;19999;-57
2022/10/17 13:46:38;;;;;;;;;;;22.90;76.70;;;;;;5053356;28;19949;-58
2022/10/17 13:49:25;;;;;;;;;;;22.70;77.20;;;;;;5040471;28;20277;-57
2022/10/17 13:51:55;;;;;;;;;;;22.50;75.30;;;;;;4973488;28;19930;-58
2022/10/17 13:54:22;;;;;;;;;;;22.30;76.70;;;;;;5028180;28;19925;-58
2022/10/17 13:56:54;;;;;;;;;;;22.20;77.20;;;;;;5054213;28;19933;-58
2022/10/17 13:59:31;;;;;;;;;;;22.00;77.10;;;;;;5018776;28;19933;-58
2022/10/17 14:02:00;;;;;;;;;;;21.40;77.70;;;;;;5021973;28;19930;-58
2022/10/17 14:04:27;;;;;;;;;;;20.80;78.30;;;;;;5048895;28;19924;-58
2022/10/17 14:07:46;;;;;;;;;;;20.10;78.80;;;;;;5071921;28;19947;-58
2022/10/17 14:10:36;;;;;;;;;;;19.40;80.10;;;;;;4971661;28;19937;-58
2022/10/17 14:13:04;;;;;;;;;;;18.80;82.30;;;;;;4977061;28;19926;-58
2022/10/17 14:15:33;;;;;;;;;;;18.40;82.90;;;;;;5074763;28;20328;-58
2022/10/17 14:18:04;;;;;;;;;;;18.10;84.40;;;;;;5036357;28;20290;-58
2022/10/17 14:20:35;;;;;;;;;;;17.90;85.20;;;;;;5036107;28;20385;-58
2022/10/17 14:23:32;;;;;;;;;;;17.70;85.90;;;;;;5052391;28;19934;-57
2022/10/17 14:26:04;;;;;;;;;;;17.60;85.80;;;;;;4973148;28;19933;-57
2022/10/17 14:28:31;;;;;;;;;;;17.50;86.80;;;;;;5026405;28;19999;-57
2022/10/17 14:31:14;;;;;;;;;;;17.50;86.30;;;;;;4969052;28;20297;-57
2022/10/17 14:33:43;;;;;;;;;;;17.40;86.30;;;;;;4998808;28;19931;-57
2022/10/17 14:36:15;;;;;;;;;;;17.30;86.90;;;;;;5010164;28;19927;-57
2022/10/17 14:38:48;;;;;;;;;;;17.30;86.00;;;;;;5027705;28;19947;-57
2022/10/17 14:41:30;;;;;;;;;;;17.20;86.00;;;;;;5074311;28;20287;-57
2022/10/17 14:44:24;;;;;;;;;;;17.20;86.10;;;;;;5058489;28;19928;-57